sensor_id;sensor_type;location;lat;lon;timestamp;pressure;altitude;pressure_sealevel;temperature;humidity
47080;BME280;33067;49.296;14.470;2023-06-24T00:01:16;97449.21;;;21.15;41.94
47080;BME280;33067;49.296;14.470;2023-06-24T00:03:42;97446.84;;;21.19;41.73
47080;BME280;33067;49.296;14.470;2023-06-24T00:06:08;97445.84;;;20.90;41.64
47080;BME280;33067;49.296;14.470;2023-06-24T00:08:33;97448.00;;;20.07;42.76
47080;BME280;33067;49.296;14.470;2023-06-24T00:10:58;97449.01;;;20.65;42.47
47080;BME280;33067;49.296;14.470;2023-06-24T00:13:23;97443.33;;;20.99;41.78
47080;BME280;33067;49.296;14.470;2023-06-24T00:15:49;97441.98;;;20.92;42.52
47080;BME280;33067;49.296;14.470;2023-06-24T00:18:15;97436.63;;;20.63;42.62
47080;BME280;33067;49.296;14.470;2023-06-24T00:20:40;97432.95;;;20.79;42.51
47080;BME280;33067;49.296;14.470;2023-06-24T00:23:06;97441.47;;;20.96;42.58
47080;BME280;33067;49.296;14.470;2023-06-24T00:25:30;97444.79;;;20.54;42.65
47080;BME280;33067;49.296;14.470;2023-06-24T00:27:55;97444.17;;;20.65;42.46
47080;BME280;33067;49.296;14.470;2023-06-24T00:30:22;97442.11;;;20.86;42.47
47080;BME280;33067;49.296;14.470;2023-06-24T00:32:47;97443.47;;;21.02;42.00
47080;BME280;33067;49.296;14.470;2023-06-24T00:35:13;97440.95;;;20.19;43.03
47080;BME280;33067;49.296;14.470;2023-06-24T00:37:38;97440.32;;;20.04;43.44
47080;BME280;33067;49.296;14.470;2023-06-24T00:40:04;97440.58;;;20.02;43.41
47080;BME280;33067;49.296;14.470;2023-06-24T00:42:28;97440.91;;;20.00;43.02
47080;BME280;33067;49.296;14.470;2023-06-24T00:44:53;97447.03;;;20.39;42.94
47080;BME280;33067;49.296;14.470;2023-06-24T00:47:18;97451.98;;;20.01;43.26
47080;BME280;33067;49.296;14.470;2023-06-24T00:49:44;97458.64;;;19.64;44.31
47080;BME280;33067;49.296;14.470;2023-06-24T00:52:08;97456.28;;;19.55;44.14
47080;BME280;33067;49.296;14.470;2023-06-24T00:54:33;97463.87;;;19.70;43.75
47080;BME280;33067;49.296;14.470;2023-06-24T00:56:59;97464.45;;;19.51;44.14
47080;BME280;33067;49.296;14.470;2023-06-24T00:59:23;97458.80;;;19.91;43.47
47080;BME280;33067;49.296;14.470;2023-06-24T01:01:49;97457.47;;;19.59;43.16
47080;BME280;33067;49.296;14.470;2023-06-24T01:04:14;97459.52;;;20.01;43.45
47080;BME280;33067;49.296;14.470;2023-06-24T01:06:39;97467.00;;;20.05;43.42
47080;BME280;33067;49.296;14.470;2023-06-24T01:09:04;97472.16;;;19.85;42.80
47080;BME280;33067;49.296;14.470;2023-06-24T01:11:29;97477.53;;;20.00;42.57
47080;BME280;33067;49.296;14.470;2023-06-24T01:13:54;97486.27;;;20.48;42.95
47080;BME280;33067;49.296;14.470;2023-06-24T01:16:28;97494.53;;;19.52;43.35
47080;BME280;33067;49.296;14.470;2023-06-24T01:18:47;97496.88;;;20.07;42.66
47080;BME280;33067;49.296;14.470;2023-06-24T01:21:14;97489.83;;;19.40;42.93
47080;BME280;33067;49.296;14.470;2023-06-24T01:23:44;97492.02;;;19.02;44.16
47080;BME280;33067;49.296;14.470;2023-06-24T01:26:18;97489.26;;;18.87;43.90
47080;BME280;33067;49.296;14.470;2023-06-24T01:28:40;97488.94;;;18.19;44.78
47080;BME280;33067;49.296;14.470;2023-06-24T01:33:22;97489.05;;;19.78;43.53
47080;BME280;33067;49.296;14.470;2023-06-24T01:35:40;97498.90;;;19.06;44.69
47080;BME280;33067;49.296;14.470;2023-06-24T01:38:08;97496.05;;;19.04;45.11
47080;BME280;33067;49.296;14.470;2023-06-24T01:40:32;97496.81;;;19.02;45.60
47080;BME280;33067;49.296;14.470;2023-06-24T01:42:57;97500.50;;;18.91;45.41
47080;BME280;33067;49.296;14.470;2023-06-24T01:45:23;97503.67;;;19.21;44.98
47080;BME280;33067;49.296;14.470;2023-06-24T01:47:49;97505.41;;;19.68;45.18
47080;BME280;33067;49.296;14.470;2023-06-24T01:50:11;97509.57;;;19.49;45.31
47080;BME280;33067;49.296;14.470;2023-06-24T01:52:35;97508.12;;;19.34;45.47
47080;BME280;33067;49.296;14.470;2023-06-24T01:55:00;97511.10;;;19.84;45.36
47080;BME280;33067;49.296;14.470;2023-06-24T01:57:25;97508.88;;;19.77;45.12
47080;BME280;33067;49.296;14.470;2023-06-24T01:59:52;97511.10;;;19.71;45.26
47080;BME280;33067;49.296;14.470;2023-06-24T02:02:15;97510.81;;;19.73;45.04
47080;BME280;33067;49.296;14.470;2023-06-24T02:04:40;97515.89;;;19.65;45.01
47080;BME280;33067;49.296;14.470;2023-06-24T02:07:06;97518.41;;;19.90;44.93
47080;BME280;33067;49.296;14.470;2023-06-24T02:09:31;97523.88;;;19.85;45.10
47080;BME280;33067;49.296;14.470;2023-06-24T02:12:59;97524.07;;;19.77;44.99
47080;BME280;33067;49.296;14.470;2023-06-24T02:15:26;97524.80;;;19.99;44.69
47080;BME280;33067;49.296;14.470;2023-06-24T02:17:50;97527.27;;;19.55;44.93
47080;BME280;33067;49.296;14.470;2023-06-24T02:20:16;97528.88;;;19.68;44.79
47080;BME280;33067;49.296;14.470;2023-06-24T02:22:41;97535.20;;;19.50;45.33
47080;BME280;33067;49.296;14.470;2023-06-24T02:25:07;97538.21;;;19.68;45.02
47080;BME280;33067;49.296;14.470;2023-06-24T02:27:31;97542.49;;;19.35;45.48
47080;BME280;33067;49.296;14.470;2023-06-24T02:29:57;97542.03;;;19.74;45.54
47080;BME280;33067;49.296;14.470;2023-06-24T02:32:20;97534.80;;;19.84;44.84
47080;BME280;33067;49.296;14.470;2023-06-24T02:34:46;97544.13;;;19.78;44.68
47080;BME280;33067;49.296;14.470;2023-06-24T02:37:11;97551.46;;;19.79;44.69
47080;BME280;33067;49.296;14.470;2023-06-24T02:39:36;97554.37;;;20.14;44.18
47080;BME280;33067;49.296;14.470;2023-06-24T02:42:02;97554.44;;;20.21;44.29
47080;BME280;33067;49.296;14.470;2023-06-24T02:44:26;97553.92;;;19.94;44.52
47080;BME280;33067;49.296;14.470;2023-06-24T02:46:51;97553.39;;;19.63;44.18
47080;BME280;33067;49.296;14.470;2023-06-24T02:49:17;97552.60;;;20.37;43.86
47080;BME280;33067;49.296;14.470;2023-06-24T02:51:41;97557.58;;;20.19;43.84
47080;BME280;33067;49.296;14.470;2023-06-24T02:54:06;97558.22;;;20.15;43.96
47080;BME280;33067;49.296;14.470;2023-06-24T02:56:32;97557.07;;;20.09;43.56
47080;BME280;33067;49.296;14.470;2023-06-24T02:58:56;97562.43;;;20.40;43.54
47080;BME280;33067;49.296;14.470;2023-06-24T03:01:22;97564.61;;;20.51;43.40
47080;BME280;33067;49.296;14.470;2023-06-24T03:03:48;97561.82;;;20.32;43.38
47080;BME280;33067;49.296;14.470;2023-06-24T03:06:12;97569.37;;;20.25;43.06
47080;BME280;33067;49.296;14.470;2023-06-24T03:08:37;97569.12;;;20.21;43.06
47080;BME280;33067;49.296;14.470;2023-06-24T03:11:02;97570.05;;;20.51;43.39
47080;BME280;33067;49.296;14.470;2023-06-24T03:13:27;97572.03;;;20.04;43.37
47080;BME280;33067;49.296;14.470;2023-06-24T03:15:52;97576.52;;;20.29;43.42
47080;BME280;33067;49.296;14.470;2023-06-24T03:18:17;97578.56;;;20.29;42.83
47080;BME280;33067;49.296;14.470;2023-06-24T03:20:42;97580.31;;;20.35;43.07
47080;BME280;33067;49.296;14.470;2023-06-24T03:23:08;97578.09;;;20.19;43.27
47080;BME280;33067;49.296;14.470;2023-06-24T03:25:32;97576.60;;;20.54;43.44
47080;BME280;33067;49.296;14.470;2023-06-24T03:27:57;97574.41;;;20.11;43.97
47080;BME280;33067;49.296;14.470;2023-06-24T03:30:22;97578.79;;;20.00;44.33
47080;BME280;33067;49.296;14.470;2023-06-24T03:32:47;97578.93;;;20.21;44.41
47080;BME280;33067;49.296;14.470;2023-06-24T03:35:12;97583.28;;;20.30;44.09
47080;BME280;33067;49.296;14.470;2023-06-24T03:37:37;97586.88;;;20.07;44.19
47080;BME280;33067;49.296;14.470;2023-06-24T03:40:02;97586.88;;;20.22;44.17
47080;BME280;33067;49.296;14.470;2023-06-24T03:42:28;97586.19;;;20.06;44.40
47080;BME280;33067;49.296;14.470;2023-06-24T03:44:52;97588.78;;;20.08;44.52
47080;BME280;33067;49.296;14.470;2023-06-24T03:47:17;97588.35;;;19.94;44.79
47080;BME280;33067;49.296;14.470;2023-06-24T03:49:42;97589.93;;;19.93;44.42
47080;BME280;33067;49.296;14.470;2023-06-24T03:52:07;97587.27;;;20.30;44.40
47080;BME280;33067;49.296;14.470;2023-06-24T03:54:32;97590.50;;;19.75;44.07
47080;BME280;33067;49.296;14.470;2023-06-24T03:56:57;97587.60;;;19.81;44.09
47080;BME280;33067;49.296;14.470;2023-06-24T03:59:22;97585.55;;;20.37;43.86
47080;BME280;33067;49.296;14.470;2023-06-24T04:01:47;97588.29;;;20.26;44.17
47080;BME280;33067;49.296;14.470;2023-06-24T04:04:12;97590.16;;;20.09;43.69
47080;BME280;33067;49.296;14.470;2023-06-24T04:06:37;97596.45;;;20.10;43.75
47080;BME280;33067;49.296;14.470;2023-06-24T04:09:03;97596.56;;;20.02;44.08
47080;BME280;33067;49.296;14.470;2023-06-24T04:11:28;97597.07;;;20.09;44.26
47080;BME280;33067;49.296;14.470;2023-06-24T04:13:53;97596.52;;;19.95;44.23
47080;BME280;33067;49.296;14.470;2023-06-24T04:16:18;97595.83;;;20.13;44.06
47080;BME280;33067;49.296;14.470;2023-06-24T04:18:43;97596.64;;;20.19;44.02
47080;BME280;33067;49.296;14.470;2023-06-24T04:21:08;97603.92;;;19.67;44.38
47080;BME280;33067;49.296;14.470;2023-06-24T04:23:33;97607.82;;;19.82;44.19
47080;BME280;33067;49.296;14.470;2023-06-24T04:25:58;97608.46;;;20.15;44.17
47080;BME280;33067;49.296;14.470;2023-06-24T04:28:23;97607.77;;;20.33;43.80
47080;BME280;33067;49.296;14.470;2023-06-24T04:30:48;97608.01;;;20.35;43.17
47080;BME280;33067;49.296;14.470;2023-06-24T04:33:13;97612.43;;;19.56;43.50
47080;BME280;33067;49.296;14.470;2023-06-24T04:35:38;97620.71;;;19.96;43.67
47080;BME280;33067;49.296;14.470;2023-06-24T04:38:03;97629.19;;;19.76;43.87
47080;BME280;33067;49.296;14.470;2023-06-24T04:40:28;97630.47;;;19.91;44.16
47080;BME280;33067;49.296;14.470;2023-06-24T04:42:53;97630.00;;;19.84;43.79
47080;BME280;33067;49.296;14.470;2023-06-24T04:45:18;97627.37;;;19.82;43.92
47080;BME280;33067;49.296;14.470;2023-06-24T04:47:43;97626.10;;;19.67;44.17
47080;BME280;33067;49.296;14.470;2023-06-24T04:50:09;97619.24;;;19.39;44.00
47080;BME280;33067;49.296;14.470;2023-06-24T04:52:33;97626.13;;;19.44;44.27
47080;BME280;33067;49.296;14.470;2023-06-24T04:54:58;97630.87;;;19.52;44.54
47080;BME280;33067;49.296;14.470;2023-06-24T04:57:25;97634.61;;;19.57;44.04
47080;BME280;33067;49.296;14.470;2023-06-24T04:59:48;97634.32;;;19.70;43.80
47080;BME280;33067;49.296;14.470;2023-06-24T05:02:14;97633.57;;;19.40;43.66
47080;BME280;33067;49.296;14.470;2023-06-24T05:04:39;97637.56;;;19.00;44.37
47080;BME280;33067;49.296;14.470;2023-06-24T05:07:05;97649.74;;;18.80;45.26
47080;BME280;33067;49.296;14.470;2023-06-24T05:09:30;97649.18;;;18.43;45.65
47080;BME280;33067;49.296;14.470;2023-06-24T05:11:55;97652.67;;;18.82;45.62
47080;BME280;33067;49.296;14.470;2023-06-24T05:14:20;97657.02;;;18.70;45.45
47080;BME280;33067;49.296;14.470;2023-06-24T05:16:46;97655.71;;;18.65;45.91
47080;BME280;33067;49.296;14.470;2023-06-24T05:19:11;97656.23;;;18.70;45.93
47080;BME280;33067;49.296;14.470;2023-06-24T05:21:37;97658.36;;;19.02;46.00
47080;BME280;33067;49.296;14.470;2023-06-24T05:24:04;97658.55;;;18.83;46.00
47080;BME280;33067;49.296;14.470;2023-06-24T05:26:27;97654.07;;;19.09;45.33
47080;BME280;33067;49.296;14.470;2023-06-24T05:28:52;97654.41;;;19.61;44.88
47080;BME280;33067;49.296;14.470;2023-06-24T05:31:17;97655.17;;;19.36;44.95
47080;BME280;33067;49.296;14.470;2023-06-24T05:33:42;97656.53;;;19.69;44.50
47080;BME280;33067;49.296;14.470;2023-06-24T05:36:07;97658.38;;;19.71;43.84
47080;BME280;33067;49.296;14.470;2023-06-24T05:38:32;97662.48;;;19.56;44.55
47080;BME280;33067;49.296;14.470;2023-06-24T05:40:57;97665.17;;;19.45;44.71
47080;BME280;33067;49.296;14.470;2023-06-24T05:43:23;97667.45;;;19.46;44.61
47080;BME280;33067;49.296;14.470;2023-06-24T05:45:47;97668.81;;;19.65;44.29
47080;BME280;33067;49.296;14.470;2023-06-24T05:48:14;97669.12;;;19.49;44.21
47080;BME280;33067;49.296;14.470;2023-06-24T05:50:38;97669.51;;;19.83;44.02
47080;BME280;33067;49.296;14.470;2023-06-24T05:53:03;97671.81;;;19.24;44.95
47080;BME280;33067;49.296;14.470;2023-06-24T05:55:28;97674.25;;;19.33;44.36
47080;BME280;33067;49.296;14.470;2023-06-24T05:57:53;97674.60;;;19.24;44.54
47080;BME280;33067;49.296;14.470;2023-06-24T06:00:19;97677.70;;;19.50;44.67
47080;BME280;33067;49.296;14.470;2023-06-24T06:02:43;97674.10;;;19.42;44.95
47080;BME280;33067;49.296;14.470;2023-06-24T06:05:08;97671.62;;;19.16;45.27
47080;BME280;33067;49.296;14.470;2023-06-24T06:07:33;97668.05;;;19.37;44.95
47080;BME280;33067;49.296;14.470;2023-06-24T06:09:58;97674.38;;;19.20;44.92
47080;BME280;33067;49.296;14.470;2023-06-24T06:12:23;97672.09;;;19.40;45.42
47080;BME280;33067;49.296;14.470;2023-06-24T06:14:49;97679.19;;;19.30;45.36
47080;BME280;33067;49.296;14.470;2023-06-24T06:17:14;97678.81;;;19.21;45.57
47080;BME280;33067;49.296;14.470;2023-06-24T06:19:39;97676.57;;;19.59;45.56
47080;BME280;33067;49.296;14.470;2023-06-24T06:22:05;97676.22;;;19.84;45.09
47080;BME280;33067;49.296;14.470;2023-06-24T06:24:30;97678.26;;;19.20;45.35
47080;BME280;33067;49.296;14.470;2023-06-24T06:26:57;97682.69;;;19.73;44.64
47080;BME280;33067;49.296;14.470;2023-06-24T06:29:21;97687.13;;;19.61;44.61
47080;BME280;33067;49.296;14.470;2023-06-24T06:31:45;97694.39;;;19.51;44.74
47080;BME280;33067;49.296;14.470;2023-06-24T06:34:12;97698.17;;;19.85;44.29
47080;BME280;33067;49.296;14.470;2023-06-24T06:36:36;97698.26;;;19.95;43.80
47080;BME280;33067;49.296;14.470;2023-06-24T06:39:01;97699.01;;;19.93;43.76
47080;BME280;33067;49.296;14.470;2023-06-24T06:41:26;97695.94;;;20.31;43.58
47080;BME280;33067;49.296;14.470;2023-06-24T06:43:52;97699.91;;;20.23;43.63
47080;BME280;33067;49.296;14.470;2023-06-24T06:46:17;97699.73;;;20.35;43.19
47080;BME280;33067;49.296;14.470;2023-06-24T06:48:42;97701.17;;;20.25;43.12
47080;BME280;33067;49.296;14.470;2023-06-24T06:51:07;97701.65;;;20.67;42.91
47080;BME280;33067;49.296;14.470;2023-06-24T06:53:32;97706.73;;;20.55;43.03
47080;BME280;33067;49.296;14.470;2023-06-24T06:55:57;97707.80;;;20.53;42.82
47080;BME280;33067;49.296;14.470;2023-06-24T06:58:23;97710.49;;;20.35;43.33
47080;BME280;33067;49.296;14.470;2023-06-24T07:00:49;97709.98;;;18.74;42.67
47080;BME280;33067;49.296;14.470;2023-06-24T07:03:15;97711.87;;;20.70;41.83
47080;BME280;33067;49.296;14.470;2023-06-24T07:05:40;97706.83;;;20.09;42.81
47080;BME280;33067;49.296;14.470;2023-06-24T07:08:05;97713.88;;;19.95;43.66
47080;BME280;33067;49.296;14.470;2023-06-24T07:10:30;97709.94;;;20.07;43.67
47080;BME280;33067;49.296;14.470;2023-06-24T07:12:56;97713.85;;;20.66;43.58
47080;BME280;33067;49.296;14.470;2023-06-24T07:15:21;97715.46;;;20.15;44.12
47080;BME280;33067;49.296;14.470;2023-06-24T07:17:47;97715.53;;;20.40;44.33
47080;BME280;33067;49.296;14.470;2023-06-24T07:20:12;97717.82;;;20.99;43.92
47080;BME280;33067;49.296;14.470;2023-06-24T07:22:38;97719.17;;;21.24;43.43
47080;BME280;33067;49.296;14.470;2023-06-24T07:25:04;97722.35;;;20.57;43.89
47080;BME280;33067;49.296;14.470;2023-06-24T07:27:29;97721.83;;;20.69;44.18
47080;BME280;33067;49.296;14.470;2023-06-24T07:29:54;97725.39;;;21.13;43.59
47080;BME280;33067;49.296;14.470;2023-06-24T07:32:19;97731.90;;;20.81;44.22
47080;BME280;33067;49.296;14.470;2023-06-24T07:34:45;97731.47;;;20.83;43.42
47080;BME280;33067;49.296;14.470;2023-06-24T07:37:10;97732.98;;;20.82;44.15
47080;BME280;33067;49.296;14.470;2023-06-24T07:39:36;97736.43;;;20.63;44.49
47080;BME280;33067;49.296;14.470;2023-06-24T07:42:02;97735.22;;;20.75;44.09
47080;BME280;33067;49.296;14.470;2023-06-24T07:44:27;97737.71;;;21.01;44.51
47080;BME280;33067;49.296;14.470;2023-06-24T07:46:54;97737.52;;;20.82;44.87
47080;BME280;33067;49.296;14.470;2023-06-24T07:49:18;97737.25;;;20.74;44.26
47080;BME280;33067;49.296;14.470;2023-06-24T07:51:44;97741.18;;;20.57;45.10
47080;BME280;33067;49.296;14.470;2023-06-24T07:54:10;97741.60;;;20.94;44.81
47080;BME280;33067;49.296;14.470;2023-06-24T07:56:36;97743.50;;;20.70;45.31
47080;BME280;33067;49.296;14.470;2023-06-24T07:59:02;97745.14;;;20.65;45.34
47080;BME280;33067;49.296;14.470;2023-06-24T08:01:27;97744.68;;;20.82;45.10
47080;BME280;33067;49.296;14.470;2023-06-24T08:03:53;97745.30;;;20.87;45.28
47080;BME280;33067;49.296;14.470;2023-06-24T08:06:20;97748.52;;;20.33;45.39
47080;BME280;33067;49.296;14.470;2023-06-24T08:08:45;97750.77;;;20.59;45.08
47080;BME280;33067;49.296;14.470;2023-06-24T08:11:09;97752.85;;;20.63;44.92
47080;BME280;33067;49.296;14.470;2023-06-24T08:13:34;97751.84;;;20.28;45.12
47080;BME280;33067;49.296;14.470;2023-06-24T08:15:59;97753.33;;;20.18;45.69
47080;BME280;33067;49.296;14.470;2023-06-24T08:18:25;97753.99;;;20.68;45.97
47080;BME280;33067;49.296;14.470;2023-06-24T08:20:50;97754.75;;;20.37;46.10
47080;BME280;33067;49.296;14.470;2023-06-24T08:23:15;97756.08;;;20.61;45.67
47080;BME280;33067;49.296;14.470;2023-06-24T08:25:41;97756.58;;;20.40;45.83
47080;BME280;33067;49.296;14.470;2023-06-24T08:28:07;97761.77;;;20.17;46.15
47080;BME280;33067;49.296;14.470;2023-06-24T08:30:33;97761.52;;;20.62;45.85
47080;BME280;33067;49.296;14.470;2023-06-24T08:32:57;97766.99;;;20.09;46.20
47080;BME280;33067;49.296;14.470;2023-06-24T08:35:23;97766.76;;;20.12;46.53
47080;BME280;33067;49.296;14.470;2023-06-24T08:37:48;97766.18;;;20.34;46.38
47080;BME280;33067;49.296;14.470;2023-06-24T08:40:14;97770.65;;;20.26;46.20
47080;BME280;33067;49.296;14.470;2023-06-24T08:42:40;97775.33;;;20.09;46.06
47080;BME280;33067;49.296;14.470;2023-06-24T08:45:06;97772.39;;;20.05;46.37
47080;BME280;33067;49.296;14.470;2023-06-24T08:47:31;97775.84;;;19.16;46.56
47080;BME280;33067;49.296;14.470;2023-06-24T08:50:02;97779.29;;;19.69;46.80
47080;BME280;33067;49.296;14.470;2023-06-24T08:52:26;97784.94;;;19.60;46.77
47080;BME280;33067;49.296;14.470;2023-06-24T08:54:51;97780.56;;;19.83;46.96
47080;BME280;33067;49.296;14.470;2023-06-24T08:57:13;97782.53;;;19.51;46.86
47080;BME280;33067;49.296;14.470;2023-06-24T08:59:38;97778.35;;;19.68;47.22
47080;BME280;33067;49.296;14.470;2023-06-24T09:02:04;97777.06;;;19.88;47.11
47080;BME280;33067;49.296;14.470;2023-06-24T09:04:29;97773.36;;;20.33;46.86
47080;BME280;33067;49.296;14.470;2023-06-24T09:06:54;97772.27;;;20.39;47.02
47080;BME280;33067;49.296;14.470;2023-06-24T09:09:20;97771.39;;;20.35;47.48
47080;BME280;33067;49.296;14.470;2023-06-24T09:11:51;97763.05;;;20.28;47.69
47080;BME280;33067;49.296;14.470;2023-06-24T09:14:12;97760.46;;;19.92;47.59
47080;BME280;33067;49.296;14.470;2023-06-24T09:16:37;97762.57;;;20.14;46.99
47080;BME280;33067;49.296;14.470;2023-06-24T09:19:02;97760.18;;;20.54;47.50
47080;BME280;33067;49.296;14.470;2023-06-24T09:21:28;97760.11;;;20.72;47.40
47080;BME280;33067;49.296;14.470;2023-06-24T09:23:55;97759.78;;;20.42;47.57
47080;BME280;33067;49.296;14.470;2023-06-24T09:26:18;97761.19;;;20.72;47.13
47080;BME280;33067;49.296;14.470;2023-06-24T09:28:47;97758.11;;;21.32;46.26
47080;BME280;33067;49.296;14.470;2023-06-24T09:31:09;97757.52;;;21.38;46.16
47080;BME280;33067;49.296;14.470;2023-06-24T09:33:35;97758.85;;;21.40;46.68
47080;BME280;33067;49.296;14.470;2023-06-24T09:36:00;97759.04;;;21.54;45.86
47080;BME280;33067;49.296;14.470;2023-06-24T09:38:32;97762.35;;;22.10;44.44
47080;BME280;33067;49.296;14.470;2023-06-24T09:40:55;97757.52;;;21.95;44.97
47080;BME280;33067;49.296;14.470;2023-06-24T09:43:20;97755.09;;;21.66;44.77
47080;BME280;33067;49.296;14.470;2023-06-24T09:45:41;97752.64;;;21.75;44.93
47080;BME280;33067;49.296;14.470;2023-06-24T09:48:06;97750.90;;;22.56;44.80
47080;BME280;33067;49.296;14.470;2023-06-24T09:50:34;97747.85;;;22.32;44.00
47080;BME280;33067;49.296;14.470;2023-06-24T09:52:58;97748.77;;;22.50;43.82
47080;BME280;33067;49.296;14.470;2023-06-24T09:55:24;97748.01;;;22.52;43.54
47080;BME280;33067;49.296;14.470;2023-06-24T09:57:51;97746.91;;;22.44;42.70
47080;BME280;33067;49.296;14.470;2023-06-24T10:00:16;97745.36;;;22.24;42.87
47080;BME280;33067;49.296;14.470;2023-06-24T10:02:40;97742.24;;;22.76;42.01
47080;BME280;33067;49.296;14.470;2023-06-24T10:05:06;97745.72;;;22.74;40.80
47080;BME280;33067;49.296;14.470;2023-06-24T10:07:33;97741.64;;;23.26;39.89
47080;BME280;33067;49.296;14.470;2023-06-24T10:09:56;97736.57;;;22.12;40.97
47080;BME280;33067;49.296;14.470;2023-06-24T10:12:21;97739.15;;;22.66;40.37
47080;BME280;33067;49.296;14.470;2023-06-24T10:14:47;97737.29;;;23.14;39.94
47080;BME280;33067;49.296;14.470;2023-06-24T10:17:12;97733.61;;;23.32;40.00
47080;BME280;33067;49.296;14.470;2023-06-24T10:19:38;97731.03;;;23.48;39.31
47080;BME280;33067;49.296;14.470;2023-06-24T10:22:03;97727.21;;;23.25;39.39
47080;BME280;33067;49.296;14.470;2023-06-24T10:24:29;97725.55;;;23.49;38.32
47080;BME280;33067;49.296;14.470;2023-06-24T10:26:54;97720.70;;;23.47;37.88
47080;BME280;33067;49.296;14.470;2023-06-24T10:29:30;97715.40;;;23.81;37.91
47080;BME280;33067;49.296;14.470;2023-06-24T10:31:51;97709.48;;;24.04;37.96
47080;BME280;33067;49.296;14.470;2023-06-24T10:34:20;97707.80;;;23.91;37.47
47080;BME280;33067;49.296;14.470;2023-06-24T10:36:37;97707.32;;;24.22;37.91
47080;BME280;33067;49.296;14.470;2023-06-24T10:39:02;97704.67;;;24.59;37.45
47080;BME280;33067;49.296;14.470;2023-06-24T10:41:27;97705.77;;;24.67;36.56
47080;BME280;33067;49.296;14.470;2023-06-24T10:43:56;97701.47;;;24.78;36.09
47080;BME280;33067;49.296;14.470;2023-06-24T10:46:19;97697.60;;;24.84;35.47
47080;BME280;33067;49.296;14.470;2023-06-24T10:48:44;97695.12;;;24.66;36.29
47080;BME280;33067;49.296;14.470;2023-06-24T10:51:10;97693.52;;;24.07;36.34
47080;BME280;33067;49.296;14.470;2023-06-24T10:53:36;97689.57;;;24.86;35.78
47080;BME280;33067;49.296;14.470;2023-06-24T10:56:02;97688.56;;;25.16;35.21
47080;BME280;33067;49.296;14.470;2023-06-24T10:58:27;97686.65;;;24.83;35.78
47080;BME280;33067;49.296;14.470;2023-06-24T11:00:52;97686.86;;;24.76;36.07
47080;BME280;33067;49.296;14.470;2023-06-24T11:03:18;97683.19;;;24.64;35.77
47080;BME280;33067;49.296;14.470;2023-06-24T11:05:45;97681.52;;;24.68;35.79
47080;BME280;33067;49.296;14.470;2023-06-24T11:08:09;97677.77;;;24.73;35.04
47080;BME280;33067;49.296;14.470;2023-06-24T11:10:43;97678.26;;;25.05;34.89
47080;BME280;33067;49.296;14.470;2023-06-24T11:13:05;97673.13;;;25.31;35.66
47080;BME280;33067;49.296;14.470;2023-06-24T11:15:25;97671.11;;;25.55;35.81
47080;BME280;33067;49.296;14.470;2023-06-24T11:17:51;97670.14;;;25.29;35.90
47080;BME280;33067;49.296;14.470;2023-06-24T11:20:17;97667.71;;;25.26;35.51
47080;BME280;33067;49.296;14.470;2023-06-24T11:22:43;97662.87;;;25.59;35.29
47080;BME280;33067;49.296;14.470;2023-06-24T11:25:16;97656.07;;;25.29;34.49
47080;BME280;33067;49.296;14.470;2023-06-24T11:27:33;97652.89;;;25.12;35.25
47080;BME280;33067;49.296;14.470;2023-06-24T11:30:00;97642.22;;;25.63;35.18
47080;BME280;33067;49.296;14.470;2023-06-24T11:32:34;97636.81;;;25.60;34.84
47080;BME280;33067;49.296;14.470;2023-06-24T11:34:50;97637.87;;;25.82;33.72
47080;BME280;33067;49.296;14.470;2023-06-24T11:37:17;97632.06;;;25.66;34.15
47080;BME280;33067;49.296;14.470;2023-06-24T11:39:41;97630.37;;;25.95;33.95
47080;BME280;33067;49.296;14.470;2023-06-24T11:42:08;97628.77;;;25.95;33.39
47080;BME280;33067;49.296;14.470;2023-06-24T11:44:32;97623.42;;;25.87;33.11
47080;BME280;33067;49.296;14.470;2023-06-24T11:47:04;97621.53;;;26.18;33.57
47080;BME280;33067;49.296;14.470;2023-06-24T11:49:23;97621.26;;;26.66;33.62
47080;BME280;33067;49.296;14.470;2023-06-24T11:51:50;97615.92;;;26.63;34.08
47080;BME280;33067;49.296;14.470;2023-06-24T11:54:16;97605.60;;;26.93;32.97
47080;BME280;33067;49.296;14.470;2023-06-24T11:56:42;97600.72;;;26.82;31.63
47080;BME280;33067;49.296;14.470;2023-06-24T11:59:06;97600.68;;;26.40;32.37
47080;BME280;33067;49.296;14.470;2023-06-24T12:01:32;97593.22;;;26.57;31.64
47080;BME280;33067;49.296;14.470;2023-06-24T12:03:59;97593.36;;;26.24;30.66
47080;BME280;33067;49.296;14.470;2023-06-24T12:06:23;97595.04;;;26.97;30.71
47080;BME280;33067;49.296;14.470;2023-06-24T12:08:49;97589.24;;;26.48;29.56
47080;BME280;33067;49.296;14.470;2023-06-24T12:11:14;97585.93;;;26.37;28.68
47080;BME280;33067;49.296;14.470;2023-06-24T12:13:42;97581.39;;;26.59;28.32
47080;BME280;33067;49.296;14.470;2023-06-24T12:16:05;97586.88;;;26.44;29.62
47080;BME280;33067;49.296;14.470;2023-06-24T12:18:31;97584.86;;;26.48;29.21
47080;BME280;33067;49.296;14.470;2023-06-24T12:20:57;97574.91;;;25.85;29.62
47080;BME280;33067;49.296;14.470;2023-06-24T12:23:22;97570.70;;;25.89;29.53
47080;BME280;33067;49.296;14.470;2023-06-24T12:25:48;97572.88;;;26.81;29.07
47080;BME280;33067;49.296;14.470;2023-06-24T12:28:14;97571.32;;;27.14;28.50
47080;BME280;33067;49.296;14.470;2023-06-24T12:30:39;97575.22;;;26.35;28.55
47080;BME280;33067;49.296;14.470;2023-06-24T12:33:05;97568.02;;;26.50;27.54
47080;BME280;33067;49.296;14.470;2023-06-24T12:35:30;97565.48;;;26.46;27.15
47080;BME280;33067;49.296;14.470;2023-06-24T12:37:56;97560.40;;;27.13;26.94
47080;BME280;33067;49.296;14.470;2023-06-24T12:40:22;97549.46;;;27.26;26.43
47080;BME280;33067;49.296;14.470;2023-06-24T12:42:48;97559.24;;;25.66;27.28